Terminal Aerodrome Forecast
Issued by NWS

Home | Current Version | Previous Version | Text Only | Print | Product List | Glossary On
Versions: 1 2 3 4 5 6 7 8 9 10 11 12 13 14 15
965
FTUS45 KABQ 060532
TAFSAF
TAF
KSAF 060532Z 0606/0706 36010KT P6SM BKN150
     FM061400 16008KT P6SM OVC120
     FM061900 19012G20KT P6SM BKN110
     FM062300 22012KT P6SM SCT060 SCT100=

USA.gov is the U.S. government's official web portal to all federal, state and local government web resources and services.